createdAt,value
2022-12-25T03:43:37.198Z,27.69
2022-12-25T03:44:37.159Z,29.83
2022-12-25T03:45:37.170Z,29.15
2022-12-25T03:46:37.264Z,27.83
2022-12-25T03:47:37.171Z,27.56
2022-12-25T03:48:37.181Z,28.93
2022-12-25T03:49:37.172Z,28.53
2022-12-25T03:50:37.198Z,28.06
2022-12-25T03:51:37.181Z,29.44
2022-12-25T03:52:37.194Z,28.06
2022-12-25T03:53:37.183Z,27.57
2022-12-25T03:54:37.186Z,27.53
2022-12-25T03:55:37.216Z,27.85
2022-12-25T03:56:37.222Z,27.99
2022-12-25T03:57:37.232Z,28.15
2022-12-25T03:58:37.221Z,27.57
2022-12-25T03:59:37.219Z,29.45
2022-12-25T04:00:37.233Z,28.60
2022-12-25T04:01:37.251Z,27.44
2022-12-25T04:02:37.479Z,26.93
2022-12-25T04:03:37.336Z,28.90
2022-12-25T04:04:37.244Z,28.45
2022-12-25T04:05:37.251Z,27.59
2022-12-25T04:06:37.263Z,29.62
2022-12-25T04:07:37.268Z,30.91
2022-12-25T04:08:37.277Z,29.80
2022-12-25T04:09:37.268Z,28.72
2022-12-25T04:10:37.268Z,28.49
2022-12-25T04:11:37.289Z,27.86
2022-12-25T04:12:37.284Z,29.22
2022-12-25T04:13:37.283Z,28.48
2022-12-25T04:14:37.272Z,27.35
2022-12-25T04:15:37.350Z,28.81
2022-12-25T04:16:37.296Z,29.03
2022-12-25T04:17:37.283Z,28.97
2022-12-25T04:18:38.164Z,29.12
2022-12-25T04:19:37.282Z,28.47
2022-12-25T04:20:37.283Z,26.15
2022-12-25T04:21:37.287Z,26.33
2022-12-25T04:22:37.273Z,27.81
2022-12-25T04:23:37.266Z,26.34
2022-12-25T04:24:37.278Z,26.55
2022-12-25T04:25:37.271Z,26.47
2022-12-25T04:26:37.312Z,26.83
2022-12-25T04:27:37.274Z,27.56
2022-12-25T04:28:37.279Z,26.30
2022-12-25T04:29:37.278Z,28.33
2022-12-25T04:30:37.281Z,29.64
2022-12-25T04:31:37.412Z,25.85
2022-12-25T04:32:37.284Z,25.41
2022-12-25T04:33:37.300Z,26.72
2022-12-25T04:34:37.289Z,26.46
2022-12-25T04:35:37.269Z,27.21
2022-12-25T04:36:37.279Z,27.38
2022-12-25T04:37:37.275Z,27.32
2022-12-25T04:38:37.282Z,26.86
2022-12-25T04:39:37.294Z,28.12
2022-12-25T04:40:37.264Z,26.49
2022-12-25T04:41:37.265Z,25.58
2022-12-25T04:42:37.292Z,28.38
2022-12-25T04:43:37.287Z,28.55
2022-12-25T04:44:37.257Z,28.60
2022-12-25T04:45:37.267Z,28.53
2022-12-25T04:46:37.320Z,26.60
2022-12-25T04:47:37.253Z,28.59
2022-12-25T04:48:37.259Z,25.93
2022-12-25T04:49:37.293Z,27.16
2022-12-25T04:50:37.247Z,27.19
2022-12-25T04:51:37.242Z,27.46
2022-12-25T04:52:37.242Z,27.45
2022-12-25T04:53:37.250Z,27.86
2022-12-25T04:54:37.238Z,27.46
2022-12-25T04:55:37.238Z,27.21
2022-12-25T04:56:43.388Z,26.83
2022-12-25T04:57:38.243Z,27.10
2022-12-25T04:58:37.265Z,27.31
2022-12-25T04:59:37.244Z,27.44
2022-12-25T05:00:37.227Z,27.84
2022-12-25T05:01:37.316Z,27.47
2022-12-25T05:02:37.569Z,28.82
2022-12-25T05:03:37.268Z,26.08
2022-12-25T05:04:37.197Z,29.16
2022-12-25T05:05:37.191Z,29.39
2022-12-25T05:06:37.200Z,29.56
2022-12-25T05:07:37.223Z,28.38
2022-12-25T05:08:37.208Z,28.68
2022-12-25T05:09:37.184Z,27.50
2022-12-25T05:10:37.184Z,27.36
2022-12-25T05:11:37.183Z,29.29
2022-12-25T05:12:37.173Z,28.27
2022-12-25T05:13:37.161Z,29.07
2022-12-25T05:14:37.181Z,29.39
2022-12-25T05:15:37.187Z,29.21
2022-12-25T05:16:37.161Z,29.52
2022-12-25T05:17:37.166Z,26.33
2022-12-25T05:18:37.168Z,27.83
2022-12-25T05:19:37.162Z,26.54
2022-12-25T05:20:40.280Z,26.25
2022-12-25T05:21:37.170Z,31.57
2022-12-25T05:22:37.160Z,29.32
2022-12-25T05:23:37.147Z,26.07
2022-12-25T05:24:37.169Z,28.20
2022-12-25T05:25:37.150Z,27.64
2022-12-25T05:26:37.147Z,27.82
2022-12-25T05:27:37.137Z,27.55
2022-12-25T05:28:37.154Z,28.14
2022-12-25T05:29:37.140Z,26.29
2022-12-25T05:30:37.143Z,28.61
2022-12-25T05:31:37.183Z,26.44
2022-12-25T05:32:37.165Z,26.01
2022-12-25T05:33:37.146Z,26.94
2022-12-25T05:34:37.161Z,26.58
2022-12-25T05:35:37.150Z,28.34
2022-12-25T05:36:37.149Z,27.11
2022-12-25T05:37:37.165Z,28.22
2022-12-25T05:38:37.163Z,28.48
2022-12-25T05:39:37.178Z,29.04
2022-12-25T05:40:37.165Z,27.98
2022-12-25T05:41:37.165Z,28.51
2022-12-25T05:42:37.172Z,28.50
2022-12-25T05:43:37.174Z,29.65
2022-12-25T05:44:37.165Z,27.37
2022-12-25T05:45:37.162Z,27.57
2022-12-25T05:46:37.173Z,27.03
2022-12-25T05:47:37.153Z,27.37
2022-12-25T05:48:37.163Z,27.28
2022-12-25T05:49:37.175Z,25.40
2022-12-25T05:50:37.148Z,27.09
2022-12-25T05:51:37.140Z,28.00
2022-12-25T05:52:37.160Z,26.89
2022-12-25T05:53:37.147Z,27.62
2022-12-25T05:54:37.144Z,27.95
2022-12-25T05:55:37.132Z,28.61
2022-12-25T05:56:37.135Z,27.20
2022-12-25T05:57:37.120Z,28.06
2022-12-25T05:58:37.118Z,26.84
2022-12-25T05:59:37.127Z,27.93
2022-12-25T06:00:37.136Z,25.90
2022-12-25T06:01:37.240Z,29.90
2022-12-25T06:02:37.413Z,27.03
2022-12-25T06:03:37.161Z,27.77
2022-12-25T06:04:37.128Z,27.48
2022-12-25T06:05:37.107Z,28.03
2022-12-25T06:06:37.104Z,28.78
2022-12-25T06:07:37.075Z,25.75
2022-12-25T06:08:37.073Z,25.50
2022-12-25T06:09:37.063Z,27.82
2022-12-25T06:10:37.072Z,27.31
2022-12-25T06:11:37.067Z,26.34
2022-12-25T06:12:37.069Z,27.55
2022-12-25T06:13:37.045Z,28.72
2022-12-25T06:14:37.047Z,27.24
2022-12-25T06:15:37.058Z,29.58
2022-12-25T06:16:38.504Z,27.40
2022-12-25T06:17:37.051Z,30.16
2022-12-25T06:18:37.049Z,28.70
2022-12-25T06:19:37.044Z,26.45
2022-12-25T06:20:37.021Z,28.15
2022-12-25T06:21:37.015Z,28.09
2022-12-25T06:22:37.027Z,27.39
2022-12-25T06:23:37.044Z,27.66
2022-12-25T06:24:37.018Z,29.61
2022-12-25T06:25:37.021Z,27.02
2022-12-25T06:26:37.006Z,26.31
2022-12-25T06:27:36.998Z,29.23
2022-12-25T06:28:36.995Z,27.17
2022-12-25T06:29:36.999Z,28.11
2022-12-25T06:30:37.012Z,27.88
2022-12-25T06:31:37.039Z,28.31
2022-12-25T06:32:36.998Z,28.26
2022-12-25T06:33:36.982Z,28.64
2022-12-25T06:34:36.981Z,28.95
2022-12-25T06:35:36.977Z,28.74
2022-12-25T06:36:36.977Z,28.70
2022-12-25T06:37:36.984Z,29.08
2022-12-25T06:38:36.976Z,28.22
2022-12-25T06:39:36.975Z,26.78
2022-12-25T06:40:36.972Z,27.21
2022-12-25T06:41:36.954Z,28.36
2022-12-25T06:42:36.958Z,28.81
2022-12-25T06:43:36.953Z,26.68
2022-12-25T06:44:36.955Z,27.11
2022-12-25T06:45:37.020Z,26.07
2022-12-25T06:46:36.957Z,26.70
2022-12-25T06:47:36.949Z,29.22
2022-12-25T06:48:36.955Z,27.77
2022-12-25T06:49:36.933Z,28.71
2022-12-25T06:50:36.931Z,28.52
2022-12-25T06:51:36.936Z,27.63
2022-12-25T06:52:36.947Z,28.12
2022-12-25T06:53:40.449Z,29.55
2022-12-25T06:54:36.919Z,29.66
2022-12-25T06:55:36.942Z,29.39
2022-12-25T06:56:36.948Z,29.68
2022-12-25T06:57:36.904Z,29.71
2022-12-25T10:22:35.816Z,25.20
2022-12-25T10:23:35.801Z,26.99
2022-12-25T10:24:35.807Z,27.54
2022-12-25T10:25:35.827Z,26.52
2022-12-25T10:27:35.783Z,26.56
2022-12-25T10:28:35.774Z,27.38
2022-12-25T10:29:35.760Z,27.59
2022-12-25T10:30:35.766Z,29.16
2022-12-25T10:31:35.793Z,28.42
2022-12-25T10:32:35.754Z,29.84
2022-12-25T10:33:35.739Z,27.60
2022-12-25T10:34:35.734Z,26.17
2022-12-25T10:35:35.732Z,30.80
2022-12-25T10:36:35.703Z,30.96
2022-12-25T10:37:35.702Z,31.11
2022-12-25T10:38:35.716Z,31.31
2022-12-25T10:39:39.625Z,28.63
2022-12-25T10:41:35.668Z,28.98
2022-12-25T10:42:35.634Z,28.79
2022-12-25T10:43:35.636Z,27.12
2022-12-25T10:44:35.638Z,26.94
2022-12-25T10:45:35.610Z,26.06
2022-12-25T10:46:35.707Z,28.25
2022-12-25T10:47:35.618Z,26.84
2022-12-25T10:48:35.603Z,28.14
2022-12-25T10:49:35.581Z,27.92
2022-12-25T10:50:35.581Z,27.12
2022-12-25T10:51:35.561Z,29.28
2022-12-25T10:52:35.570Z,29.86
2022-12-25T10:53:35.573Z,27.81
2022-12-25T10:54:35.635Z,25.05
2022-12-25T10:55:35.580Z,29.38
2022-12-25T10:56:35.554Z,27.17
2022-12-25T10:57:35.561Z,25.94
2022-12-25T10:58:35.573Z,27.66
2022-12-25T10:59:35.567Z,29.78
2022-12-25T13:51:33.691Z,31.43
2022-12-25T13:52:33.691Z,32.65
2022-12-25T13:53:33.698Z,30.55
2022-12-25T13:55:33.676Z,32.23
2022-12-25T13:56:33.663Z,30.97
2022-12-25T13:57:33.664Z,33.75
2022-12-25T13:58:33.656Z,33.87
2022-12-25T13:59:33.641Z,31.28
2022-12-25T14:00:33.641Z,31.27
2022-12-25T14:01:33.716Z,33.96
2022-12-25T14:02:33.799Z,31.69
2022-12-25T14:03:33.621Z,32.47
2022-12-25T14:04:33.581Z,34.03
2022-12-25T14:05:41.684Z,35.47
2022-12-25T14:06:34.570Z,35.62
2022-12-25T14:07:33.544Z,35.16
2022-12-25T14:08:33.557Z,33.03
2022-12-25T14:09:33.528Z,34.15
2022-12-25T14:10:33.518Z,35.58
2022-12-25T14:11:33.523Z,35.70
2022-12-25T14:12:33.517Z,34.39
2022-12-25T14:13:33.489Z,36.26
2022-12-25T14:14:33.485Z,34.43
2022-12-25T14:15:33.510Z,31.47
2022-12-25T14:16:33.518Z,34.30
2022-12-25T14:17:33.488Z,33.41
2022-12-25T14:18:33.457Z,35.26
2022-12-25T14:19:33.468Z,35.64
2022-12-25T14:20:33.462Z,31.31
2022-12-25T14:21:33.461Z,33.53
2022-12-25T14:22:33.465Z,32.69
2022-12-25T14:23:33.421Z,33.61
2022-12-25T14:24:33.441Z,35.15
2022-12-25T14:25:33.426Z,34.33
2022-12-25T14:26:33.489Z,34.39
2022-12-25T14:27:33.415Z,34.46
2022-12-25T14:28:33.385Z,32.03
2022-12-25T14:29:33.376Z,33.32
2022-12-25T14:30:33.419Z,37.44
2022-12-25T14:31:33.354Z,33.81
2022-12-25T14:32:33.347Z,34.04
2022-12-25T14:33:33.347Z,34.06
2022-12-25T14:34:33.347Z,34.16
2022-12-25T14:35:33.312Z,34.44
2022-12-25T14:36:33.347Z,34.68
2022-12-25T14:37:33.309Z,35.90
2022-12-25T14:38:33.295Z,32.66
2022-12-25T14:39:33.297Z,35.40
2022-12-25T14:40:33.283Z,34.59
2022-12-25T14:41:33.665Z,34.34
2022-12-25T14:42:33.313Z,33.37
2022-12-25T14:43:33.267Z,34.07
2022-12-25T14:44:33.283Z,34.37
2022-12-25T14:45:33.245Z,35.54
2022-12-25T14:46:33.349Z,32.62
2022-12-25T14:47:33.263Z,36.26
2022-12-25T14:48:33.260Z,36.03
2022-12-25T14:49:33.231Z,34.37
2022-12-25T14:50:33.210Z,34.43
2022-12-25T14:51:33.207Z,35.71
2022-12-25T14:52:33.190Z,36.52
2022-12-25T14:53:33.188Z,33.67
2022-12-25T14:54:33.164Z,35.46
2022-12-25T14:55:33.169Z,35.15
2022-12-25T14:56:33.153Z,33.64
2022-12-25T14:57:33.140Z,34.71
2022-12-25T14:58:33.145Z,35.23
2022-12-25T14:59:33.136Z,32.93
2022-12-25T15:00:33.135Z,33.85
2022-12-25T15:01:33.292Z,35.30
2022-12-25T15:02:33.258Z,33.97
2022-12-25T15:03:33.210Z,35.71
2022-12-25T15:04:33.103Z,36.13
2022-12-25T15:05:33.092Z,35.26
2022-12-25T15:06:33.247Z,37.54
2022-12-25T15:07:33.093Z,37.76
2022-12-25T15:08:33.093Z,37.76
2022-12-25T15:09:33.068Z,37.76
2022-12-25T15:11:34.063Z,37.67
2022-12-25T15:12:33.901Z,37.81
2022-12-25T15:13:33.055Z,36.19
2022-12-25T15:14:33.031Z,37.41
2022-12-25T15:15:33.059Z,34.93
2022-12-25T15:16:33.096Z,34.98
2022-12-25T15:17:33.028Z,34.47
2022-12-25T15:18:33.016Z,34.83
2022-12-25T15:19:37.362Z,35.74
2022-12-25T15:20:33.992Z,36.00
2022-12-25T15:21:33.002Z,36.12
2022-12-25T15:22:53.927Z,37.03
2022-12-25T15:23:33.973Z,36.01
2022-12-25T15:24:32.966Z,36.00
2022-12-25T15:25:32.946Z,36.88
2022-12-25T15:26:32.938Z,37.99
2022-12-25T15:27:32.921Z,33.95
2022-12-25T15:28:32.927Z,39.75
2022-12-25T15:30:08.019Z,35.83
2022-12-25T15:30:32.906Z,36.11
2022-12-25T15:31:32.923Z,36.59
2022-12-25T15:32:32.889Z,36.74
2022-12-25T15:33:32.913Z,36.24
2022-12-25T15:34:32.875Z,38.70
2022-12-25T15:35:32.892Z,37.54
2022-12-25T15:36:32.850Z,35.89
2022-12-25T15:37:32.866Z,32.72
2022-12-25T15:38:32.850Z,35.80
2022-12-25T15:39:32.837Z,33.76
2022-12-25T15:40:32.851Z,36.01
2022-12-25T15:41:32.862Z,34.86
2022-12-25T15:42:33.240Z,38.17
2022-12-25T15:43:41.245Z,36.97
2022-12-25T15:44:33.794Z,37.21
2022-12-25T15:45:32.802Z,37.36
2022-12-25T15:46:32.866Z,37.58
2022-12-25T15:47:32.788Z,37.35
2022-12-25T15:48:32.799Z,37.94
2022-12-25T15:49:32.754Z,35.91
2022-12-25T15:50:32.748Z,38.88
2022-12-25T15:51:32.762Z,38.80
2022-12-25T15:52:32.750Z,35.91
2022-12-25T15:53:32.754Z,36.08
2022-12-25T15:54:32.774Z,38.36
2022-12-25T15:55:32.741Z,38.05
2022-12-25T15:56:32.740Z,33.03
2022-12-25T15:57:32.742Z,38.40
2022-12-25T15:58:32.717Z,36.22
2022-12-25T15:59:32.728Z,36.68
2022-12-25T16:00:32.721Z,37.11
2022-12-25T16:01:32.768Z,37.76
2022-12-25T16:02:32.920Z,40.36
2022-12-25T16:03:32.712Z,41.56
2022-12-25T16:04:32.709Z,36.53
2022-12-25T16:05:32.690Z,39.30
2022-12-25T16:06:32.677Z,38.64
2022-12-25T16:07:32.690Z,37.81
2022-12-25T16:08:32.678Z,38.99
2022-12-25T16:09:32.675Z,37.87
2022-12-25T16:10:38.493Z,39.01
2022-12-25T16:11:33.663Z,39.20
2022-12-25T16:12:32.677Z,37.55
2022-12-25T16:13:32.673Z,37.74
2022-12-25T16:14:32.669Z,37.86
2022-12-25T16:15:32.781Z,37.62
2022-12-25T16:16:32.724Z,37.64
2022-12-25T16:17:32.655Z,36.34
2022-12-25T16:18:32.679Z,36.81
2022-12-25T16:19:32.685Z,37.78
2022-12-25T16:20:32.642Z,36.83
2022-12-25T16:21:32.656Z,37.23
2022-12-25T16:22:32.657Z,38.16
2022-12-25T16:23:32.640Z,37.80
2022-12-25T16:24:32.647Z,37.30
2022-12-25T16:25:33.403Z,38.68
2022-12-25T16:26:32.630Z,37.01
2022-12-25T16:27:32.627Z,37.06
2022-12-25T16:28:32.620Z,38.71
2022-12-25T16:29:32.642Z,38.81
2022-12-25T16:30:32.664Z,37.73
2022-12-25T16:31:32.709Z,40.16
2022-12-25T16:32:32.619Z,39.08
2022-12-25T16:33:32.609Z,38.21
2022-12-25T16:34:32.610Z,37.51
2022-12-25T16:35:32.607Z,37.73
2022-12-25T16:36:32.602Z,35.93
2022-12-25T16:37:32.587Z,35.86
2022-12-25T16:38:32.585Z,37.12
2022-12-25T16:39:32.605Z,38.58
2022-12-25T16:40:32.576Z,38.57
2022-12-25T16:41:32.634Z,37.51
2022-12-25T16:42:32.584Z,38.04
2022-12-25T16:43:32.587Z,36.51
2022-12-25T16:44:32.570Z,38.30
2022-12-25T16:45:32.557Z,39.17
2022-12-25T16:46:32.614Z,37.12
2022-12-25T16:47:32.556Z,37.97
2022-12-25T16:48:32.549Z,38.83
2022-12-25T16:49:32.561Z,39.55
2022-12-25T16:50:32.544Z,38.21
2022-12-25T16:51:32.550Z,35.03
2022-12-25T16:52:32.550Z,38.10
2022-12-25T16:53:32.532Z,39.58
2022-12-25T16:54:32.532Z,36.48
2022-12-25T16:55:32.538Z,37.57
2022-12-25T16:56:32.511Z,36.80
2022-12-25T16:57:32.523Z,37.06
2022-12-25T16:58:32.506Z,37.42
2022-12-25T16:59:32.530Z,37.11
2022-12-25T17:00:32.499Z,37.69
2022-12-25T17:01:32.614Z,37.28
2022-12-25T17:02:32.783Z,38.06
2022-12-25T17:03:32.640Z,36.39
2022-12-25T17:04:32.487Z,37.35
2022-12-25T17:05:32.943Z,39.55
2022-12-25T17:06:32.510Z,39.36
2022-12-25T17:07:32.479Z,35.23
2022-12-25T17:08:32.468Z,38.32
2022-12-25T17:09:32.446Z,37.47
2022-12-25T17:10:32.462Z,38.60
2022-12-25T17:11:32.470Z,38.81
2022-12-25T17:12:32.428Z,39.03
2022-12-25T17:13:32.429Z,38.98
2022-12-25T17:14:32.427Z,38.72
2022-12-25T17:15:32.417Z,37.43
2022-12-25T17:16:32.511Z,37.60
2022-12-25T17:17:32.399Z,38.25
2022-12-25T17:18:32.397Z,35.87
2022-12-25T17:19:32.425Z,38.68
2022-12-25T17:20:32.394Z,36.82
2022-12-25T17:21:32.391Z,37.63
2022-12-25T17:22:32.393Z,37.45
2022-12-25T17:23:32.380Z,35.86
2022-12-25T17:24:32.368Z,37.15
2022-12-25T17:25:32.361Z,37.45
2022-12-25T17:26:32.394Z,36.09
2022-12-25T17:27:32.360Z,36.20
2022-12-25T17:28:32.356Z,35.90
2022-12-25T17:29:32.363Z,37.86
2022-12-25T17:30:32.340Z,38.76
2022-12-25T17:31:32.417Z,39.15
2022-12-25T17:32:32.330Z,37.41
2022-12-25T17:33:32.947Z,38.30
2022-12-25T17:34:32.311Z,38.11
2022-12-25T17:35:32.345Z,37.58
2022-12-25T17:36:32.335Z,40.24
2022-12-25T17:37:32.314Z,38.80
2022-12-25T17:38:32.309Z,36.61
2022-12-25T17:39:32.292Z,34.88
2022-12-25T17:40:32.294Z,37.38
2022-12-25T17:41:32.299Z,40.38
2022-12-25T17:42:32.959Z,38.19
2022-12-25T17:43:32.295Z,37.11
2022-12-25T17:44:32.298Z,37.98
2022-12-25T17:45:32.292Z,37.94
2022-12-25T17:46:32.369Z,37.50
2022-12-25T17:47:32.318Z,35.69
2022-12-25T17:48:32.293Z,35.52
2022-12-25T17:49:32.269Z,37.67
2022-12-25T17:50:35.980Z,38.04
2022-12-25T17:51:33.297Z,38.23
2022-12-25T17:52:32.272Z,38.18
2022-12-25T17:53:32.278Z,37.59
2022-12-25T17:54:32.249Z,39.14
2022-12-25T17:55:32.239Z,37.19
2022-12-25T17:56:32.232Z,34.76
2022-12-25T17:57:32.213Z,37.07
2022-12-25T17:58:32.205Z,38.42
2022-12-25T17:59:32.195Z,39.29
2022-12-25T18:00:32.189Z,36.52
2022-12-25T18:01:32.223Z,34.32
2022-12-25T18:02:32.359Z,38.76
2022-12-25T18:03:32.253Z,38.93
2022-12-25T18:04:32.152Z,37.13
2022-12-25T18:05:32.150Z,36.44
2022-12-25T18:06:32.150Z,36.56
2022-12-25T18:07:32.157Z,36.33
2022-12-25T18:08:38.664Z,37.76
2022-12-25T18:09:33.137Z,38.00
2022-12-25T18:10:32.139Z,36.99
2022-12-25T18:11:32.117Z,36.30
2022-12-25T18:12:32.125Z,37.72
2022-12-25T18:13:32.107Z,37.00
2022-12-25T18:14:32.115Z,37.31
2022-12-25T18:15:32.107Z,35.72
2022-12-25T18:16:32.296Z,36.58
2022-12-25T18:17:32.096Z,36.27
2022-12-25T18:18:32.094Z,36.69
2022-12-25T18:19:32.105Z,37.08
2022-12-25T18:20:39.422Z,37.07
2022-12-25T18:21:33.118Z,37.21
2022-12-25T18:22:32.085Z,37.43
2022-12-25T18:23:32.066Z,35.32
2022-12-25T18:24:32.066Z,37.97
2022-12-25T18:25:32.078Z,36.45
2022-12-25T18:26:32.059Z,37.83
2022-12-25T18:27:32.068Z,37.48
2022-12-25T18:28:32.060Z,36.69
2022-12-25T18:29:32.036Z,36.86
2022-12-25T18:30:32.045Z,36.61
2022-12-25T18:31:32.187Z,36.85
2022-12-25T18:32:32.024Z,36.43
2022-12-25T18:33:32.035Z,34.99
2022-12-25T18:34:32.038Z,36.60
2022-12-25T18:35:32.023Z,34.35
2022-12-25T18:36:32.038Z,35.75
2022-12-25T18:37:37.774Z,33.70
2022-12-25T18:39:32.033Z,33.62
2022-12-25T18:40:32.000Z,33.73
2022-12-25T18:41:31.999Z,31.80
2022-12-25T18:42:32.003Z,32.59
2022-12-25T18:43:51.492Z,33.94
2022-12-25T18:45:32.045Z,33.27
2022-12-25T18:46:32.180Z,32.16
2022-12-25T18:47:31.985Z,34.09
2022-12-25T18:48:31.957Z,32.09
2022-12-25T18:49:32.458Z,30.45
2022-12-25T18:50:32.041Z,31.42
2022-12-25T18:51:36.809Z,29.69
2022-12-25T18:53:31.925Z,30.07
2022-12-25T18:54:32.464Z,29.88
2022-12-25T18:55:31.991Z,27.36
2022-12-25T18:56:31.901Z,30.11
2022-12-25T18:57:32.462Z,30.12
2022-12-25T18:58:32.486Z,30.32
2022-12-25T18:59:31.863Z,29.39
2022-12-25T19:00:31.967Z,27.84
2022-12-25T19:01:32.607Z,27.61
2022-12-25T19:02:32.082Z,28.21
2022-12-25T19:03:31.919Z,29.22
2022-12-25T19:04:31.806Z,30.44
2022-12-25T19:05:31.828Z,29.10
2022-12-25T19:06:31.784Z,28.03
2022-12-25T19:07:31.817Z,28.03
2022-12-25T19:08:31.877Z,29.32
2022-12-25T19:09:31.775Z,27.95
2022-12-25T19:10:31.768Z,25.71
2022-12-25T19:11:31.760Z,27.26
2022-12-25T19:12:31.767Z,26.80
2022-12-25T19:13:31.769Z,29.51
2022-12-25T19:14:31.736Z,29.88
2022-12-25T19:15:31.735Z,30.00
2022-12-25T19:16:31.797Z,29.05
2022-12-25T19:17:32.403Z,29.10
2022-12-25T19:18:31.747Z,27.35
2022-12-25T19:19:31.743Z,25.50
2022-12-25T19:20:31.733Z,27.81
2022-12-25T19:21:31.713Z,26.83
2022-12-25T19:22:31.721Z,28.60
2022-12-25T19:23:31.729Z,28.73
2022-12-25T19:24:31.712Z,26.90
2022-12-25T19:25:31.710Z,26.32
2022-12-25T19:26:31.709Z,28.32
2022-12-25T19:27:31.710Z,28.74
2022-12-25T19:28:31.699Z,27.49
2022-12-25T19:29:31.719Z,28.01
2022-12-25T19:30:31.690Z,25.99
2022-12-25T19:31:31.739Z,27.19
2022-12-25T19:32:31.688Z,28.92
2022-12-25T19:33:31.688Z,30.37
2022-12-25T19:34:31.708Z,27.17
2022-12-25T19:35:31.694Z,27.80
2022-12-25T19:36:31.672Z,28.06
2022-12-25T19:37:31.691Z,28.03
2022-12-25T19:38:31.665Z,27.90
2022-12-25T19:39:31.681Z,27.95
2022-12-25T19:40:31.672Z,29.59
2022-12-25T19:41:31.663Z,29.49
2022-12-25T19:42:31.669Z,29.42
2022-12-25T19:43:31.679Z,29.61
2022-12-25T19:44:31.666Z,30.24
2022-12-25T19:45:31.679Z,29.45
2022-12-25T19:46:31.657Z,30.43
2022-12-25T19:47:31.702Z,29.52
2022-12-25T19:48:31.654Z,30.60
2022-12-25T19:49:31.668Z,29.12
2022-12-25T19:50:31.671Z,28.65
2022-12-25T19:51:31.662Z,31.49
2022-12-25T19:52:31.677Z,29.47
2022-12-25T19:53:31.649Z,29.39
2022-12-25T19:54:31.686Z,29.32
2022-12-25T19:55:31.657Z,27.35
2022-12-25T19:56:31.653Z,28.90
2022-12-25T19:57:31.659Z,29.72
2022-12-25T19:58:31.663Z,31.22
2022-12-25T19:59:31.649Z,30.45
2022-12-25T20:00:31.656Z,31.55
2022-12-25T20:01:32.562Z,30.02
2022-12-25T20:02:31.766Z,30.35
2022-12-25T20:03:31.710Z,30.91
2022-12-25T20:04:31.651Z,27.02
2022-12-25T20:05:32.480Z,30.71
2022-12-25T20:06:31.653Z,30.00
2022-12-25T20:07:31.644Z,27.28
2022-12-25T20:08:31.635Z,30.96
2022-12-25T20:09:31.644Z,29.65
2022-12-25T20:10:31.639Z,29.49
2022-12-25T20:11:31.651Z,31.21
2022-12-25T20:12:31.625Z,29.39
2022-12-25T20:13:31.675Z,30.40
2022-12-25T20:14:31.629Z,29.73
2022-12-25T20:15:31.643Z,31.08
2022-12-25T20:16:31.723Z,32.17
2022-12-25T20:17:31.633Z,31.34
2022-12-25T20:18:31.651Z,29.92
2022-12-25T20:19:31.628Z,30.71
2022-12-25T20:20:31.638Z,29.48
2022-12-25T20:21:31.621Z,29.96
2022-12-25T20:22:31.629Z,30.48
2022-12-25T20:23:31.621Z,31.52
2022-12-25T20:24:31.622Z,29.25
2022-12-25T20:25:31.599Z,29.10
2022-12-25T20:26:31.660Z,28.37
2022-12-25T20:27:31.587Z,27.97
2022-12-25T20:28:31.583Z,29.01
2022-12-25T20:29:31.608Z,28.78
2022-12-25T20:30:31.575Z,27.65
2022-12-25T20:31:31.633Z,30.31
2022-12-25T20:32:31.574Z,28.39
2022-12-25T20:33:31.581Z,29.00
2022-12-25T20:34:31.564Z,26.89
2022-12-25T20:35:31.556Z,27.27
2022-12-25T20:36:36.858Z,30.81
2022-12-25T20:37:32.569Z,30.94
2022-12-25T20:38:31.564Z,30.14
2022-12-25T20:39:31.556Z,28.73
2022-12-25T20:40:46.773Z,27.92
2022-12-25T20:41:32.538Z,30.93
2022-12-25T20:42:31.581Z,28.35
2022-12-25T20:43:31.517Z,30.43
2022-12-25T20:44:31.516Z,29.87
2022-12-25T20:45:31.561Z,27.23
2022-12-25T20:46:31.676Z,27.06
2022-12-25T20:47:31.512Z,26.24
2022-12-25T20:48:31.529Z,27.38
2022-12-25T20:49:31.486Z,28.16
2022-12-25T20:50:31.479Z,26.97
2022-12-25T20:51:31.460Z,29.30
2022-12-25T20:52:31.469Z,25.99
2022-12-25T20:53:31.457Z,27.89
2022-12-25T20:54:31.453Z,27.90
2022-12-25T20:55:31.450Z,25.76
2022-12-25T20:56:31.444Z,27.57
2022-12-25T20:57:31.442Z,29.32
2022-12-25T20:58:31.454Z,29.48
2022-12-25T20:59:37.116Z,27.88
2022-12-25T21:00:32.431Z,28.05
2022-12-25T21:01:31.695Z,28.36
2022-12-25T21:02:34.689Z,28.51
2022-12-25T21:03:31.619Z,28.13
2022-12-25T21:04:31.424Z,28.40
2022-12-25T21:05:31.433Z,28.60
2022-12-25T21:06:31.387Z,28.92
2022-12-25T21:07:31.389Z,29.92
2022-12-25T21:08:31.372Z,31.27
2022-12-25T21:09:31.385Z,30.57
2022-12-25T21:10:31.377Z,31.61
2022-12-25T21:11:31.392Z,29.43
2022-12-25T21:12:31.357Z,30.35
2022-12-25T21:13:31.359Z,29.89
2022-12-25T21:14:31.386Z,28.74
2022-12-25T21:15:31.337Z,28.54
2022-12-25T21:16:31.380Z,25.62
2022-12-25T21:17:31.335Z,29.29
2022-12-25T21:18:31.326Z,27.78
2022-12-25T21:19:31.336Z,27.69
2022-12-25T21:20:31.327Z,26.15
2022-12-25T21:21:31.321Z,28.68
2022-12-25T21:22:31.312Z,27.60
2022-12-25T21:23:31.317Z,27.69
2022-12-25T21:24:31.305Z,28.73
2022-12-25T21:25:31.300Z,29.58
2022-12-25T21:26:31.320Z,28.89
2022-12-25T21:27:31.311Z,29.61
2022-12-25T21:28:31.324Z,29.69
2022-12-25T21:29:31.305Z,27.83
2022-12-25T21:30:31.321Z,26.24
2022-12-25T21:31:31.466Z,27.17
2022-12-25T21:32:31.325Z,26.63
2022-12-25T21:33:31.296Z,25.72
2022-12-25T21:34:31.310Z,27.55
2022-12-25T21:35:31.294Z,26.97
2022-12-25T21:36:31.295Z,28.15
2022-12-25T21:37:31.300Z,27.00
2022-12-25T21:38:31.328Z,27.74
2022-12-25T21:39:31.299Z,30.59
2022-12-25T21:40:31.303Z,27.25
2022-12-25T21:41:31.306Z,27.19
2022-12-25T21:42:31.303Z,28.23
2022-12-25T21:43:31.323Z,28.40
2022-12-25T21:44:31.325Z,28.49
2022-12-25T21:45:31.298Z,28.51
2022-12-25T21:46:31.350Z,27.82
2022-12-25T21:48:01.673Z,26.03
2022-12-25T21:48:32.325Z,28.35
2022-12-25T21:49:31.306Z,28.50
2022-12-25T21:50:35.954Z,26.05
2022-12-25T21:51:32.403Z,28.42
2022-12-25T21:52:31.321Z,28.35
2022-12-25T21:53:31.303Z,28.17
2022-12-25T21:54:31.309Z,27.19
2022-12-25T21:55:31.312Z,27.08
2022-12-25T21:56:31.286Z,27.45
2022-12-25T21:57:31.287Z,26.65
2022-12-25T21:58:31.291Z,28.72
2022-12-25T21:59:31.305Z,26.76
2022-12-25T22:00:31.284Z,27.39
2022-12-25T22:01:31.407Z,26.55
2022-12-25T22:02:31.465Z,27.19
2022-12-25T22:03:31.355Z,28.06
2022-12-25T22:04:31.274Z,27.62
2022-12-25T22:05:31.284Z,27.52
2022-12-25T22:06:31.268Z,29.11
2022-12-25T22:07:31.253Z,29.23
2022-12-25T22:08:31.258Z,27.69
2022-12-25T22:09:31.262Z,29.15
2022-12-25T22:10:31.284Z,25.21
2022-12-25T22:11:32.047Z,27.38
2022-12-25T22:12:34.363Z,28.99
2022-12-25T22:13:31.321Z,29.18
2022-12-25T22:14:50.483Z,29.43
2022-12-25T22:15:32.286Z,29.23
2022-12-25T22:16:31.243Z,29.21
2022-12-25T22:17:31.245Z,29.53
2022-12-25T22:18:31.236Z,28.38
2022-12-25T22:19:31.236Z,31.14
2022-12-25T22:20:31.256Z,29.57
2022-12-25T22:21:31.250Z,29.90
2022-12-25T22:22:31.228Z,29.53
2022-12-25T22:23:31.225Z,29.31
2022-12-25T22:24:31.225Z,28.17
2022-12-25T22:25:31.267Z,27.67
2022-12-25T22:26:31.239Z,29.61
2022-12-25T22:27:31.256Z,29.86
2022-12-25T22:28:31.275Z,29.96
2022-12-25T22:29:31.232Z,30.65
2022-12-25T22:30:31.232Z,32.82
2022-12-25T22:31:31.291Z,27.42
2022-12-25T22:32:31.222Z,28.68
2022-12-25T22:33:31.223Z,30.22
2022-12-25T22:34:31.239Z,30.12
2022-12-25T22:35:31.214Z,32.23
2022-12-25T22:36:31.214Z,27.25
2022-12-25T22:37:31.220Z,28.51
2022-12-25T22:38:31.221Z,31.37
2022-12-25T22:39:31.240Z,29.52
2022-12-25T22:40:31.225Z,28.74
2022-12-25T22:41:33.622Z,29.80
2022-12-25T22:42:31.204Z,34.38
2022-12-25T22:44:06.270Z,29.22
2022-12-25T22:45:31.191Z,29.79
2022-12-25T22:46:31.221Z,30.77
2022-12-25T22:47:31.183Z,31.73
2022-12-25T22:48:31.168Z,32.76
2022-12-25T22:49:31.186Z,28.49
2022-12-25T22:50:31.165Z,34.03
2022-12-25T22:51:31.151Z,29.91
2022-12-25T22:52:31.168Z,31.83
2022-12-25T22:53:31.157Z,32.03
2022-12-25T22:54:31.171Z,29.31
2022-12-25T22:55:31.155Z,30.81
2022-12-25T22:56:31.150Z,30.70
2022-12-25T22:57:31.138Z,30.33
2022-12-25T22:58:31.116Z,29.95